sensor_id;sensor_type;location;lat;lon;timestamp;P1;durP1;ratioP1;P2;durP2;ratioP2
45318;SDS011;31057;48.498;32.260;2023-04-24T00:00:10;20.00;;;13.93;;
45318;SDS011;31057;48.498;32.260;2023-04-24T00:02:16;17.90;;;13.77;;
45318;SDS011;31057;48.498;32.260;2023-04-24T00:06:20;18.83;;;13.63;;
45318;SDS011;31057;48.498;32.260;2023-04-24T00:08:24;19.23;;;12.80;;
45318;SDS011;31057;48.498;32.260;2023-04-24T00:10:26;17.73;;;13.23;;
45318;SDS011;31057;48.498;32.260;2023-04-24T00:12:28;20.45;;;13.65;;
45318;SDS011;31057;48.498;32.260;2023-04-24T00:14:31;21.88;;;14.02;;
45318;SDS011;31057;48.498;32.260;2023-04-24T00:16:33;27.08;;;17.77;;
45318;SDS011;31057;48.498;32.260;2023-04-24T00:18:35;21.33;;;16.77;;
45318;SDS011;31057;48.498;32.260;2023-04-24T00:20:37;31.33;;;21.45;;
45318;SDS011;31057;48.498;32.260;2023-04-24T00:22:39;28.35;;;22.50;;
45318;SDS011;31057;48.498;32.260;2023-04-24T00:26:42;23.00;;;17.73;;
45318;SDS011;31057;48.498;32.260;2023-04-24T00:28:45;26.67;;;18.30;;
45318;SDS011;31057;48.498;32.260;2023-04-24T00:30:46;23.13;;;17.73;;
45318;SDS011;31057;48.498;32.260;2023-04-24T00:32:48;26.50;;;18.10;;
45318;SDS011;31057;48.498;32.260;2023-04-24T00:34:50;22.20;;;16.63;;
45318;SDS011;31057;48.498;32.260;2023-04-24T00:36:52;22.65;;;15.63;;
45318;SDS011;31057;48.498;32.260;2023-04-24T00:38:54;24.30;;;14.57;;
45318;SDS011;31057;48.498;32.260;2023-04-24T00:42:58;21.60;;;14.03;;
45318;SDS011;31057;48.498;32.260;2023-04-24T00:45:00;17.05;;;13.05;;
45318;SDS011;31057;48.498;32.260;2023-04-24T00:47:04;18.90;;;14.00;;
45318;SDS011;31057;48.498;32.260;2023-04-24T00:49:06;20.67;;;14.55;;
45318;SDS011;31057;48.498;32.260;2023-04-24T00:51:08;17.75;;;14.93;;
45318;SDS011;31057;48.498;32.260;2023-04-24T00:55:12;21.85;;;14.30;;
45318;SDS011;31057;48.498;32.260;2023-04-24T00:57:14;19.75;;;14.70;;
45318;SDS011;31057;48.498;32.260;2023-04-24T00:59:16;16.88;;;14.48;;
45318;SDS011;31057;48.498;32.260;2023-04-24T01:01:19;17.05;;;14.05;;
45318;SDS011;31057;48.498;32.260;2023-04-24T01:03:26;18.17;;;13.43;;
45318;SDS011;31057;48.498;32.260;2023-04-24T01:05:34;17.08;;;13.48;;
45318;SDS011;31057;48.498;32.260;2023-04-24T01:07:37;18.25;;;13.27;;
45318;SDS011;31057;48.498;32.260;2023-04-24T01:09:40;19.88;;;13.75;;
45318;SDS011;31057;48.498;32.260;2023-04-24T01:11:45;17.15;;;13.27;;
45318;SDS011;31057;48.498;32.260;2023-04-24T01:13:48;19.52;;;14.15;;
45318;SDS011;31057;48.498;32.260;2023-04-24T01:15:50;22.35;;;14.48;;
45318;SDS011;31057;48.498;32.260;2023-04-24T01:19:54;18.02;;;14.25;;
45318;SDS011;31057;48.498;32.260;2023-04-24T01:21:58;23.70;;;14.68;;
45318;SDS011;31057;48.498;32.260;2023-04-24T01:24:03;17.25;;;13.88;;
45318;SDS011;31057;48.498;32.260;2023-04-24T01:26:06;18.13;;;14.43;;
45318;SDS011;31057;48.498;32.260;2023-04-24T01:30:11;23.85;;;15.05;;
45318;SDS011;31057;48.498;32.260;2023-04-24T01:32:13;20.67;;;15.02;;
45318;SDS011;31057;48.498;32.260;2023-04-24T01:36:18;17.08;;;12.85;;
45318;SDS011;31057;48.498;32.260;2023-04-24T01:38:21;19.58;;;13.73;;
45318;SDS011;31057;48.498;32.260;2023-04-24T01:42:25;17.75;;;12.80;;
45318;SDS011;31057;48.498;32.260;2023-04-24T01:44:27;16.92;;;12.73;;
45318;SDS011;31057;48.498;32.260;2023-04-24T01:46:29;19.08;;;13.63;;
45318;SDS011;31057;48.498;32.260;2023-04-24T01:48:33;22.60;;;13.45;;
45318;SDS011;31057;48.498;32.260;2023-04-24T01:50:35;17.38;;;13.23;;
45318;SDS011;31057;48.498;32.260;2023-04-24T01:52:37;15.10;;;12.57;;
45318;SDS011;31057;48.498;32.260;2023-04-24T01:56:41;17.50;;;12.40;;
45318;SDS011;31057;48.498;32.260;2023-04-24T01:58:44;16.67;;;12.68;;
45318;SDS011;31057;48.498;32.260;2023-04-24T02:02:48;17.70;;;12.05;;
45318;SDS011;31057;48.498;32.260;2023-04-24T02:04:50;18.75;;;13.18;;
45318;SDS011;31057;48.498;32.260;2023-04-24T02:06:52;19.75;;;14.07;;
45318;SDS011;31057;48.498;32.260;2023-04-24T02:08:54;17.60;;;13.77;;
45318;SDS011;31057;48.498;32.260;2023-04-24T02:10:56;18.65;;;14.32;;
45318;SDS011;31057;48.498;32.260;2023-04-24T02:12:58;20.40;;;13.05;;
45318;SDS011;31057;48.498;32.260;2023-04-24T02:15:01;19.42;;;12.85;;
45318;SDS011;31057;48.498;32.260;2023-04-24T02:17:03;16.42;;;13.27;;
45318;SDS011;31057;48.498;32.260;2023-04-24T02:21:06;17.65;;;12.10;;
45318;SDS011;31057;48.498;32.260;2023-04-24T02:23:08;20.75;;;12.48;;
45318;SDS011;31057;48.498;32.260;2023-04-24T02:27:12;19.37;;;12.77;;
45318;SDS011;31057;48.498;32.260;2023-04-24T02:29:14;18.45;;;13.23;;
45318;SDS011;31057;48.498;32.260;2023-04-24T02:31:17;16.98;;;12.73;;
45318;SDS011;31057;48.498;32.260;2023-04-24T02:33:18;18.65;;;12.32;;
45318;SDS011;31057;48.498;32.260;2023-04-24T02:37:23;14.68;;;11.38;;
45318;SDS011;31057;48.498;32.260;2023-04-24T02:39:25;13.55;;;11.13;;
45318;SDS011;31057;48.498;32.260;2023-04-24T02:43:34;14.73;;;10.75;;
45318;SDS011;31057;48.498;32.260;2023-04-24T02:47:39;19.55;;;11.38;;
45318;SDS011;31057;48.498;32.260;2023-04-24T02:49:41;16.50;;;12.45;;
45318;SDS011;31057;48.498;32.260;2023-04-24T02:51:43;13.50;;;10.52;;
45318;SDS011;31057;48.498;32.260;2023-04-24T02:53:45;16.15;;;11.20;;
45318;SDS011;31057;48.498;32.260;2023-04-24T02:55:47;13.80;;;10.90;;
45318;SDS011;31057;48.498;32.260;2023-04-24T02:57:49;17.05;;;11.43;;
45318;SDS011;31057;48.498;32.260;2023-04-24T02:59:51;15.15;;;11.25;;
45318;SDS011;31057;48.498;32.260;2023-04-24T03:01:53;16.13;;;10.43;;
45318;SDS011;31057;48.498;32.260;2023-04-24T03:03:55;18.52;;;11.80;;
45318;SDS011;31057;48.498;32.260;2023-04-24T03:05:57;18.67;;;12.25;;
45318;SDS011;31057;48.498;32.260;2023-04-24T03:08:00;16.27;;;11.63;;
45318;SDS011;31057;48.498;32.260;2023-04-24T03:10:01;15.48;;;11.27;;
45318;SDS011;31057;48.498;32.260;2023-04-24T03:12:04;14.25;;;11.02;;
45318;SDS011;31057;48.498;32.260;2023-04-24T03:14:06;20.35;;;12.20;;
45318;SDS011;31057;48.498;32.260;2023-04-24T03:16:08;16.45;;;11.93;;
45318;SDS011;31057;48.498;32.260;2023-04-24T03:18:10;15.98;;;11.75;;
45318;SDS011;31057;48.498;32.260;2023-04-24T03:20:12;17.90;;;11.75;;
45318;SDS011;31057;48.498;32.260;2023-04-24T03:22:14;21.83;;;12.93;;
45318;SDS011;31057;48.498;32.260;2023-04-24T03:24:16;19.85;;;11.50;;
45318;SDS011;31057;48.498;32.260;2023-04-24T03:26:18;19.92;;;13.10;;
45318;SDS011;31057;48.498;32.260;2023-04-24T03:28:20;16.55;;;12.38;;
45318;SDS011;31057;48.498;32.260;2023-04-24T03:30:22;33.60;;;14.02;;
45318;SDS011;31057;48.498;32.260;2023-04-24T03:32:24;26.08;;;13.05;;
45318;SDS011;31057;48.498;32.260;2023-04-24T03:34:26;39.28;;;12.82;;
45318;SDS011;31057;48.498;32.260;2023-04-24T03:36:28;24.70;;;12.90;;
45318;SDS011;31057;48.498;32.260;2023-04-24T03:38:31;20.65;;;12.65;;
45318;SDS011;31057;48.498;32.260;2023-04-24T03:40:33;17.00;;;12.73;;
45318;SDS011;31057;48.498;32.260;2023-04-24T03:42:35;19.98;;;12.70;;
45318;SDS011;31057;48.498;32.260;2023-04-24T03:44:39;19.42;;;13.48;;
45318;SDS011;31057;48.498;32.260;2023-04-24T03:46:41;25.25;;;14.50;;
45318;SDS011;31057;48.498;32.260;2023-04-24T03:48:43;18.65;;;13.98;;
45318;SDS011;31057;48.498;32.260;2023-04-24T03:50:45;37.30;;;25.55;;
45318;SDS011;31057;48.498;32.260;2023-04-24T03:52:47;29.70;;;15.95;;
45318;SDS011;31057;48.498;32.260;2023-04-24T03:54:49;29.23;;;14.10;;
45318;SDS011;31057;48.498;32.260;2023-04-24T03:56:51;19.73;;;12.65;;
45318;SDS011;31057;48.498;32.260;2023-04-24T03:58:52;17.98;;;11.88;;
45318;SDS011;31057;48.498;32.260;2023-04-24T04:00:54;22.98;;;12.82;;
45318;SDS011;31057;48.498;32.260;2023-04-24T04:02:59;16.38;;;11.05;;
45318;SDS011;31057;48.498;32.260;2023-04-24T04:05:02;17.77;;;10.90;;
45318;SDS011;31057;48.498;32.260;2023-04-24T04:09:06;15.73;;;11.57;;
45318;SDS011;31057;48.498;32.260;2023-04-24T04:11:09;17.45;;;11.60;;
45318;SDS011;31057;48.498;32.260;2023-04-24T04:13:11;26.45;;;11.23;;
45318;SDS011;31057;48.498;32.260;2023-04-24T04:15:13;27.10;;;15.70;;
45318;SDS011;31057;48.498;32.260;2023-04-24T04:17:15;20.30;;;11.48;;
45318;SDS011;31057;48.498;32.260;2023-04-24T04:19:17;22.48;;;11.85;;
45318;SDS011;31057;48.498;32.260;2023-04-24T04:21:19;21.23;;;11.95;;
45318;SDS011;31057;48.498;32.260;2023-04-24T04:25:23;19.45;;;11.95;;
45318;SDS011;31057;48.498;32.260;2023-04-24T04:27:25;18.75;;;11.00;;
45318;SDS011;31057;48.498;32.260;2023-04-24T04:29:27;23.05;;;12.30;;
45318;SDS011;31057;48.498;32.260;2023-04-24T04:33:32;18.95;;;11.68;;
45318;SDS011;31057;48.498;32.260;2023-04-24T04:35:33;22.35;;;11.95;;
45318;SDS011;31057;48.498;32.260;2023-04-24T04:37:36;24.27;;;11.68;;
45318;SDS011;31057;48.498;32.260;2023-04-24T04:39:38;25.02;;;12.27;;
45318;SDS011;31057;48.498;32.260;2023-04-24T04:41:40;65.18;;;14.80;;
45318;SDS011;31057;48.498;32.260;2023-04-24T04:45:44;34.17;;;12.63;;
45318;SDS011;31057;48.498;32.260;2023-04-24T04:49:48;50.25;;;16.13;;
45318;SDS011;31057;48.498;32.260;2023-04-24T04:53:52;36.55;;;15.23;;
45318;SDS011;31057;48.498;32.260;2023-04-24T04:55:54;32.17;;;15.68;;
45318;SDS011;31057;48.498;32.260;2023-04-24T04:57:56;31.08;;;14.05;;
45318;SDS011;31057;48.498;32.260;2023-04-24T04:59:58;30.23;;;13.65;;
45318;SDS011;31057;48.498;32.260;2023-04-24T05:02:00;29.17;;;13.60;;
45318;SDS011;31057;48.498;32.260;2023-04-24T05:04:02;35.55;;;14.80;;
45318;SDS011;31057;48.498;32.260;2023-04-24T05:06:04;34.55;;;15.98;;
45318;SDS011;31057;48.498;32.260;2023-04-24T05:08:07;21.70;;;12.88;;
45318;SDS011;31057;48.498;32.260;2023-04-24T05:10:26;27.95;;;12.70;;
45318;SDS011;31057;48.498;32.260;2023-04-24T05:12:28;24.08;;;11.80;;
45318;SDS011;31057;48.498;32.260;2023-04-24T05:14:30;20.65;;;11.98;;
45318;SDS011;31057;48.498;32.260;2023-04-24T05:16:32;28.27;;;12.43;;
45318;SDS011;31057;48.498;32.260;2023-04-24T05:18:34;22.52;;;13.27;;
45318;SDS011;31057;48.498;32.260;2023-04-24T05:22:37;19.33;;;13.40;;
45318;SDS011;31057;48.498;32.260;2023-04-24T05:24:39;17.88;;;11.63;;
45318;SDS011;31057;48.498;32.260;2023-04-24T05:26:41;27.02;;;12.25;;
45318;SDS011;31057;48.498;32.260;2023-04-24T05:28:43;26.90;;;13.65;;
45318;SDS011;31057;48.498;32.260;2023-04-24T05:30:45;23.27;;;13.30;;
45318;SDS011;31057;48.498;32.260;2023-04-24T05:32:47;29.40;;;14.32;;
45318;SDS011;31057;48.498;32.260;2023-04-24T05:34:49;34.85;;;13.80;;
45318;SDS011;31057;48.498;32.260;2023-04-24T05:36:51;41.42;;;13.38;;
45318;SDS011;31057;48.498;32.260;2023-04-24T05:38:54;22.45;;;11.55;;
45318;SDS011;31057;48.498;32.260;2023-04-24T05:40:56;25.75;;;12.38;;
45318;SDS011;31057;48.498;32.260;2023-04-24T05:42:58;26.73;;;13.10;;
45318;SDS011;31057;48.498;32.260;2023-04-24T05:45:00;74.55;;;14.95;;
45318;SDS011;31057;48.498;32.260;2023-04-24T05:47:02;48.45;;;13.25;;
45318;SDS011;31057;48.498;32.260;2023-04-24T05:49:04;27.40;;;10.10;;
45318;SDS011;31057;48.498;32.260;2023-04-24T05:51:07;33.33;;;13.73;;
45318;SDS011;31057;48.498;32.260;2023-04-24T05:53:09;21.35;;;11.52;;
45318;SDS011;31057;48.498;32.260;2023-04-24T05:55:13;18.02;;;10.10;;
45318;SDS011;31057;48.498;32.260;2023-04-24T06:00:18;21.80;;;11.27;;
45318;SDS011;31057;48.498;32.260;2023-04-24T06:02:23;27.17;;;13.05;;
45318;SDS011;31057;48.498;32.260;2023-04-24T06:04:25;42.67;;;15.48;;
45318;SDS011;31057;48.498;32.260;2023-04-24T06:06:28;17.30;;;13.07;;
45318;SDS011;31057;48.498;32.260;2023-04-24T06:08:30;26.40;;;13.38;;
45318;SDS011;31057;48.498;32.260;2023-04-24T06:12:34;28.43;;;12.23;;
45318;SDS011;31057;48.498;32.260;2023-04-24T06:14:36;27.63;;;10.98;;
45318;SDS011;31057;48.498;32.260;2023-04-24T06:16:40;20.27;;;11.93;;
45318;SDS011;31057;48.498;32.260;2023-04-24T06:18:43;14.95;;;11.15;;
45318;SDS011;31057;48.498;32.260;2023-04-24T06:20:46;19.63;;;12.82;;
45318;SDS011;31057;48.498;32.260;2023-04-24T06:22:48;17.27;;;10.27;;
45318;SDS011;31057;48.498;32.260;2023-04-24T06:24:50;19.40;;;10.82;;
45318;SDS011;31057;48.498;32.260;2023-04-24T06:26:52;17.17;;;10.13;;
45318;SDS011;31057;48.498;32.260;2023-04-24T06:28:54;14.63;;;9.75;;
45318;SDS011;31057;48.498;32.260;2023-04-24T06:30:56;13.98;;;9.43;;
45318;SDS011;31057;48.498;32.260;2023-04-24T06:32:58;18.58;;;9.55;;
45318;SDS011;31057;48.498;32.260;2023-04-24T06:35:13;14.65;;;9.95;;
45318;SDS011;31057;48.498;32.260;2023-04-24T06:39:17;14.75;;;9.85;;
45318;SDS011;31057;48.498;32.260;2023-04-24T06:41:19;11.40;;;8.95;;
45318;SDS011;31057;48.498;32.260;2023-04-24T06:43:21;12.18;;;9.25;;
45318;SDS011;31057;48.498;32.260;2023-04-24T06:45:23;14.90;;;9.40;;
45318;SDS011;31057;48.498;32.260;2023-04-24T06:47:25;16.35;;;11.45;;
45318;SDS011;31057;48.498;32.260;2023-04-24T06:51:29;26.42;;;10.05;;
45318;SDS011;31057;48.498;32.260;2023-04-24T06:53:31;16.40;;;10.70;;
45318;SDS011;31057;48.498;32.260;2023-04-24T06:55:35;17.02;;;12.95;;
45318;SDS011;31057;48.498;32.260;2023-04-24T06:57:37;15.93;;;10.90;;
45318;SDS011;31057;48.498;32.260;2023-04-24T06:59:39;15.65;;;10.98;;
45318;SDS011;31057;48.498;32.260;2023-04-24T07:01:41;18.35;;;11.25;;
45318;SDS011;31057;48.498;32.260;2023-04-24T07:03:43;19.33;;;10.63;;
45318;SDS011;31057;48.498;32.260;2023-04-24T07:05:45;13.40;;;10.52;;
45318;SDS011;31057;48.498;32.260;2023-04-24T07:07:48;12.07;;;9.95;;
45318;SDS011;31057;48.498;32.260;2023-04-24T07:09:51;15.40;;;9.57;;
45318;SDS011;31057;48.498;32.260;2023-04-24T07:11:53;12.57;;;9.20;;
45318;SDS011;31057;48.498;32.260;2023-04-24T07:13:57;19.35;;;8.77;;
45318;SDS011;31057;48.498;32.260;2023-04-24T07:15:59;15.75;;;8.88;;
45318;SDS011;31057;48.498;32.260;2023-04-24T07:18:01;13.48;;;8.90;;
45318;SDS011;31057;48.498;32.260;2023-04-24T07:20:06;20.08;;;8.43;;
45318;SDS011;31057;48.498;32.260;2023-04-24T07:22:10;17.98;;;9.85;;
45318;SDS011;31057;48.498;32.260;2023-04-24T07:24:17;13.43;;;8.30;;
45318;SDS011;31057;48.498;32.260;2023-04-24T07:26:22;17.75;;;8.35;;
45318;SDS011;31057;48.498;32.260;2023-04-24T07:28:24;16.05;;;8.27;;
45318;SDS011;31057;48.498;32.260;2023-04-24T07:30:27;13.30;;;8.02;;
45318;SDS011;31057;48.498;32.260;2023-04-24T07:32:33;13.02;;;8.15;;
45318;SDS011;31057;48.498;32.260;2023-04-24T07:34:36;13.10;;;8.48;;
45318;SDS011;31057;48.498;32.260;2023-04-24T07:38:40;12.43;;;7.80;;
45318;SDS011;31057;48.498;32.260;2023-04-24T07:40:42;13.57;;;8.20;;
45318;SDS011;31057;48.498;32.260;2023-04-24T07:42:45;13.52;;;8.10;;
45318;SDS011;31057;48.498;32.260;2023-04-24T07:44:49;15.95;;;7.97;;
45318;SDS011;31057;48.498;32.260;2023-04-24T07:46:52;12.45;;;7.45;;
45318;SDS011;31057;48.498;32.260;2023-04-24T07:48:54;12.52;;;7.15;;
45318;SDS011;31057;48.498;32.260;2023-04-24T07:51:13;16.27;;;7.05;;
45318;SDS011;31057;48.498;32.260;2023-04-24T07:53:15;14.07;;;7.45;;
45318;SDS011;31057;48.498;32.260;2023-04-24T07:55:17;11.02;;;6.75;;
45318;SDS011;31057;48.498;32.260;2023-04-24T07:57:22;10.68;;;6.05;;
45318;SDS011;31057;48.498;32.260;2023-04-24T07:59:25;7.97;;;4.82;;
45318;SDS011;31057;48.498;32.260;2023-04-24T08:01:26;11.05;;;4.95;;
45318;SDS011;31057;48.498;32.260;2023-04-24T08:05:32;8.68;;;5.35;;
45318;SDS011;31057;48.498;32.260;2023-04-24T08:09:36;8.20;;;4.38;;
45318;SDS011;31057;48.498;32.260;2023-04-24T08:11:38;7.53;;;5.00;;
45318;SDS011;31057;48.498;32.260;2023-04-24T08:13:40;10.55;;;5.38;;
45318;SDS011;31057;48.498;32.260;2023-04-24T08:15:42;9.05;;;4.55;;
45318;SDS011;31057;48.498;32.260;2023-04-24T08:17:44;6.70;;;4.35;;
45318;SDS011;31057;48.498;32.260;2023-04-24T08:19:46;11.43;;;4.95;;
45318;SDS011;31057;48.498;32.260;2023-04-24T08:21:52;8.70;;;4.93;;
45318;SDS011;31057;48.498;32.260;2023-04-24T08:23:54;10.95;;;4.50;;
45318;SDS011;31057;48.498;32.260;2023-04-24T08:25:56;7.20;;;4.57;;
45318;SDS011;31057;48.498;32.260;2023-04-24T08:27:58;7.90;;;4.13;;
45318;SDS011;31057;48.498;32.260;2023-04-24T08:32:02;6.35;;;3.90;;
45318;SDS011;31057;48.498;32.260;2023-04-24T08:34:05;8.05;;;4.00;;
45318;SDS011;31057;48.498;32.260;2023-04-24T08:36:07;5.53;;;3.75;;
45318;SDS011;31057;48.498;32.260;2023-04-24T08:38:09;7.57;;;4.35;;
45318;SDS011;31057;48.498;32.260;2023-04-24T08:40:15;9.85;;;3.65;;
45318;SDS011;31057;48.498;32.260;2023-04-24T08:42:18;5.25;;;3.67;;
45318;SDS011;31057;48.498;32.260;2023-04-24T08:44:21;4.72;;;3.10;;
45318;SDS011;31057;48.498;32.260;2023-04-24T08:46:23;6.72;;;4.57;;
45318;SDS011;31057;48.498;32.260;2023-04-24T08:48:26;8.45;;;4.07;;
45318;SDS011;31057;48.498;32.260;2023-04-24T08:50:32;7.35;;;3.58;;
45318;SDS011;31057;48.498;32.260;2023-04-24T08:52:35;7.28;;;4.10;;
45318;SDS011;31057;48.498;32.260;2023-04-24T08:54:37;9.63;;;4.07;;
45318;SDS011;31057;48.498;32.260;2023-04-24T08:56:41;9.40;;;4.28;;
45318;SDS011;31057;48.498;32.260;2023-04-24T08:58:46;6.80;;;3.67;;
45318;SDS011;31057;48.498;32.260;2023-04-24T09:00:48;9.20;;;3.72;;
45318;SDS011;31057;48.498;32.260;2023-04-24T09:02:52;15.93;;;4.03;;
45318;SDS011;31057;48.498;32.260;2023-04-24T09:04:55;9.23;;;3.78;;
45318;SDS011;31057;48.498;32.260;2023-04-24T09:06:58;11.07;;;4.40;;
45318;SDS011;31057;48.498;32.260;2023-04-24T09:09:01;5.80;;;3.60;;
45318;SDS011;31057;48.498;32.260;2023-04-24T09:11:04;6.00;;;3.72;;
45318;SDS011;31057;48.498;32.260;2023-04-24T09:13:06;6.30;;;3.47;;
45318;SDS011;31057;48.498;32.260;2023-04-24T09:15:10;8.13;;;3.65;;
45318;SDS011;31057;48.498;32.260;2023-04-24T09:17:12;6.53;;;3.35;;
45318;SDS011;31057;48.498;32.260;2023-04-24T09:21:16;7.00;;;3.67;;
45318;SDS011;31057;48.498;32.260;2023-04-24T09:23:18;5.50;;;3.50;;
45318;SDS011;31057;48.498;32.260;2023-04-24T09:27:23;6.25;;;3.67;;
45318;SDS011;31057;48.498;32.260;2023-04-24T09:29:25;6.50;;;3.70;;
45318;SDS011;31057;48.498;32.260;2023-04-24T09:31:28;6.57;;;4.43;;
45318;SDS011;31057;48.498;32.260;2023-04-24T09:33:30;6.93;;;3.42;;
45318;SDS011;31057;48.498;32.260;2023-04-24T09:35:32;6.10;;;3.60;;
45318;SDS011;31057;48.498;32.260;2023-04-24T09:37:35;6.18;;;4.25;;
45318;SDS011;31057;48.498;32.260;2023-04-24T09:39:38;8.13;;;3.70;;
45318;SDS011;31057;48.498;32.260;2023-04-24T09:41:45;9.10;;;3.63;;
45318;SDS011;31057;48.498;32.260;2023-04-24T09:43:47;5.53;;;3.70;;
45318;SDS011;31057;48.498;32.260;2023-04-24T09:45:49;7.93;;;3.15;;
45318;SDS011;31057;48.498;32.260;2023-04-24T09:47:58;14.48;;;3.70;;
45318;SDS011;31057;48.498;32.260;2023-04-24T09:50:01;5.40;;;3.38;;
45318;SDS011;31057;48.498;32.260;2023-04-24T09:52:18;7.80;;;3.30;;
45318;SDS011;31057;48.498;32.260;2023-04-24T09:54:21;7.88;;;3.58;;
45318;SDS011;31057;48.498;32.260;2023-04-24T09:56:23;7.63;;;3.95;;
45318;SDS011;31057;48.498;32.260;2023-04-24T09:58:28;7.85;;;4.10;;
45318;SDS011;31057;48.498;32.260;2023-04-24T10:00:31;7.80;;;3.28;;
45318;SDS011;31057;48.498;32.260;2023-04-24T10:02:34;7.75;;;3.55;;
45318;SDS011;31057;48.498;32.260;2023-04-24T10:04:36;5.10;;;3.50;;
45318;SDS011;31057;48.498;32.260;2023-04-24T10:08:43;6.60;;;2.90;;
45318;SDS011;31057;48.498;32.260;2023-04-24T10:10:47;5.22;;;3.40;;
45318;SDS011;31057;48.498;32.260;2023-04-24T10:12:49;5.93;;;3.20;;
45318;SDS011;31057;48.498;32.260;2023-04-24T10:14:53;9.88;;;3.78;;
45318;SDS011;31057;48.498;32.260;2023-04-24T10:16:55;10.32;;;3.10;;
45318;SDS011;31057;48.498;32.260;2023-04-24T10:19:00;11.75;;;3.85;;
45318;SDS011;31057;48.498;32.260;2023-04-24T10:21:04;7.95;;;3.20;;
45318;SDS011;31057;48.498;32.260;2023-04-24T10:23:07;10.20;;;3.20;;
45318;SDS011;31057;48.498;32.260;2023-04-24T10:27:11;4.85;;;3.05;;
45318;SDS011;31057;48.498;32.260;2023-04-24T10:29:18;4.47;;;3.00;;
45318;SDS011;31057;48.498;32.260;2023-04-24T10:31:21;3.25;;;2.67;;
45318;SDS011;31057;48.498;32.260;2023-04-24T10:33:23;3.35;;;2.90;;
45318;SDS011;31057;48.498;32.260;2023-04-24T10:35:26;5.22;;;2.95;;
45318;SDS011;31057;48.498;32.260;2023-04-24T10:37:35;4.63;;;2.97;;
45318;SDS011;31057;48.498;32.260;2023-04-24T10:39:39;4.63;;;2.95;;
45318;SDS011;31057;48.498;32.260;2023-04-24T10:41:42;5.07;;;3.10;;
45318;SDS011;31057;48.498;32.260;2023-04-24T10:43:44;4.65;;;3.95;;
45318;SDS011;31057;48.498;32.260;2023-04-24T10:46:02;10.07;;;3.80;;
45318;SDS011;31057;48.498;32.260;2023-04-24T10:48:07;8.18;;;3.58;;
45318;SDS011;31057;48.498;32.260;2023-04-24T10:50:15;7.78;;;3.90;;
45318;SDS011;31057;48.498;32.260;2023-04-24T10:52:17;9.68;;;3.40;;
45318;SDS011;31057;48.498;32.260;2023-04-24T10:56:24;7.95;;;4.13;;
45318;SDS011;31057;48.498;32.260;2023-04-24T10:58:40;5.20;;;3.60;;
45318;SDS011;31057;48.498;32.260;2023-04-24T11:00:54;6.20;;;3.30;;
45318;SDS011;31057;48.498;32.260;2023-04-24T11:03:01;7.15;;;3.58;;
45318;SDS011;31057;48.498;32.260;2023-04-24T11:05:07;7.60;;;3.47;;
45318;SDS011;31057;48.498;32.260;2023-04-24T11:07:09;8.82;;;3.38;;
45318;SDS011;31057;48.498;32.260;2023-04-24T11:09:12;8.10;;;3.08;;
45318;SDS011;31057;48.498;32.260;2023-04-24T11:11:17;7.15;;;3.85;;
45318;SDS011;31057;48.498;32.260;2023-04-24T11:13:22;8.95;;;3.40;;
45318;SDS011;31057;48.498;32.260;2023-04-24T11:15:26;10.15;;;3.25;;
45318;SDS011;31057;48.498;32.260;2023-04-24T11:17:31;6.00;;;3.15;;
45318;SDS011;31057;48.498;32.260;2023-04-24T11:19:35;8.73;;;3.42;;
45318;SDS011;31057;48.498;32.260;2023-04-24T11:21:48;6.35;;;3.65;;
45318;SDS011;31057;48.498;32.260;2023-04-24T11:23:53;8.63;;;4.10;;
45318;SDS011;31057;48.498;32.260;2023-04-24T11:26:17;9.18;;;4.65;;
45318;SDS011;31057;48.498;32.260;2023-04-24T11:28:20;13.40;;;6.88;;
45318;SDS011;31057;48.498;32.260;2023-04-24T11:30:29;11.35;;;6.53;;
45318;SDS011;31057;48.498;32.260;2023-04-24T11:34:34;3.90;;;2.85;;
45318;SDS011;31057;48.498;32.260;2023-04-24T11:36:40;10.00;;;3.47;;
45318;SDS011;31057;48.498;32.260;2023-04-24T11:38:48;5.47;;;3.08;;
45318;SDS011;31057;48.498;32.260;2023-04-24T11:40:51;9.00;;;5.07;;
45318;SDS011;31057;48.498;32.260;2023-04-24T11:42:53;6.07;;;2.95;;
45318;SDS011;31057;48.498;32.260;2023-04-24T11:44:58;5.78;;;3.33;;
45318;SDS011;31057;48.498;32.260;2023-04-24T11:47:05;9.65;;;5.32;;
45318;SDS011;31057;48.498;32.260;2023-04-24T11:49:10;6.15;;;2.95;;
45318;SDS011;31057;48.498;32.260;2023-04-24T11:51:14;7.47;;;3.20;;
45318;SDS011;31057;48.498;32.260;2023-04-24T11:53:18;6.10;;;3.05;;
45318;SDS011;31057;48.498;32.260;2023-04-24T11:57:27;7.32;;;2.95;;
45318;SDS011;31057;48.498;32.260;2023-04-24T11:59:37;9.02;;;3.35;;
45318;SDS011;31057;48.498;32.260;2023-04-24T12:01:43;2.95;;;2.65;;
45318;SDS011;31057;48.498;32.260;2023-04-24T12:03:49;6.70;;;3.42;;
45318;SDS011;31057;48.498;32.260;2023-04-24T12:05:52;9.10;;;3.40;;
45318;SDS011;31057;48.498;32.260;2023-04-24T12:08:12;6.05;;;2.63;;
45318;SDS011;31057;48.498;32.260;2023-04-24T12:10:30;11.60;;;3.03;;
45318;SDS011;31057;48.498;32.260;2023-04-24T12:12:33;5.47;;;3.20;;
45318;SDS011;31057;48.498;32.260;2023-04-24T12:14:42;7.38;;;2.90;;
45318;SDS011;31057;48.498;32.260;2023-04-24T12:16:51;8.43;;;3.10;;
45318;SDS011;31057;48.498;32.260;2023-04-24T12:20:55;7.45;;;3.10;;
45318;SDS011;31057;48.498;32.260;2023-04-24T12:23:15;7.25;;;3.20;;
45318;SDS011;31057;48.498;32.260;2023-04-24T12:25:18;8.10;;;3.15;;
45318;SDS011;31057;48.498;32.260;2023-04-24T12:27:21;5.32;;;3.35;;
45318;SDS011;31057;48.498;32.260;2023-04-24T12:29:24;5.65;;;3.30;;
45318;SDS011;31057;48.498;32.260;2023-04-24T12:31:26;6.88;;;2.70;;
45318;SDS011;31057;48.498;32.260;2023-04-24T12:33:34;7.18;;;3.17;;
45318;SDS011;31057;48.498;32.260;2023-04-24T12:35:36;5.85;;;3.10;;
45318;SDS011;31057;48.498;32.260;2023-04-24T12:37:42;8.90;;;4.25;;
45318;SDS011;31057;48.498;32.260;2023-04-24T12:42:04;5.07;;;3.05;;
45318;SDS011;31057;48.498;32.260;2023-04-24T12:44:10;5.38;;;3.20;;
45318;SDS011;31057;48.498;32.260;2023-04-24T12:46:14;5.43;;;2.95;;
45318;SDS011;31057;48.498;32.260;2023-04-24T12:48:19;9.63;;;3.10;;
45318;SDS011;31057;48.498;32.260;2023-04-24T12:50:22;5.15;;;3.80;;
45318;SDS011;31057;48.498;32.260;2023-04-24T12:54:31;11.70;;;6.28;;
45318;SDS011;31057;48.498;32.260;2023-04-24T12:56:34;11.98;;;6.53;;
45318;SDS011;31057;48.498;32.260;2023-04-24T12:58:37;8.73;;;4.40;;
45318;SDS011;31057;48.498;32.260;2023-04-24T13:00:39;6.63;;;4.22;;
45318;SDS011;31057;48.498;32.260;2023-04-24T13:02:44;12.35;;;8.23;;
45318;SDS011;31057;48.498;32.260;2023-04-24T13:04:47;25.13;;;9.25;;
45318;SDS011;31057;48.498;32.260;2023-04-24T13:06:49;19.50;;;15.93;;
45318;SDS011;31057;48.498;32.260;2023-04-24T13:08:50;9.57;;;5.53;;
45318;SDS011;31057;48.498;32.260;2023-04-24T13:10:52;7.15;;;3.75;;
45318;SDS011;31057;48.498;32.260;2023-04-24T13:12:55;4.75;;;3.88;;
45318;SDS011;31057;48.498;32.260;2023-04-24T13:14:57;10.65;;;6.93;;
45318;SDS011;31057;48.498;32.260;2023-04-24T13:17:00;4.45;;;2.80;;
45318;SDS011;31057;48.498;32.260;2023-04-24T13:19:02;9.70;;;5.28;;
45318;SDS011;31057;48.498;32.260;2023-04-24T13:21:04;11.82;;;6.97;;